createdAt,value
2018-09-15T00:00:10.646Z,1130.55
2018-09-15T00:01:10.665Z,1130.61
2018-09-15T00:02:10.668Z,1130.56
2018-09-15T00:03:10.665Z,1130.57
2018-09-15T00:04:10.649Z,1130.44
2018-09-15T00:05:10.656Z,1130.44
2018-09-15T00:06:10.669Z,1130.37
2018-09-15T00:07:10.677Z,1130.36
2018-09-15T00:08:10.670Z,1130.28
2018-09-15T00:09:10.705Z,1130.17
2018-09-15T00:10:10.713Z,1130.08
2018-09-15T00:11:10.703Z,1129.89
2018-09-15T00:12:10.765Z,1129.83
2018-09-15T00:13:10.705Z,1129.79
2018-09-15T00:14:10.712Z,1129.74
2018-09-15T00:15:10.719Z,1129.6
2018-09-15T00:16:10.721Z,1129.55
2018-09-15T00:17:10.762Z,1129.57
2018-09-15T00:18:10.714Z,1129.69
2018-09-15T00:19:10.710Z,1129.72
2018-09-15T00:20:10.722Z,1129.6
2018-09-15T00:21:10.715Z,1129.69
2018-09-15T00:22:10.723Z,1129.65
2018-09-15T00:23:10.816Z,1129.62
2018-09-15T00:24:10.721Z,1129.64
2018-09-15T00:25:10.733Z,1129.75
2018-09-15T00:26:10.724Z,1129.74
2018-09-15T00:27:10.727Z,1129.6
2018-09-15T00:28:10.741Z,1129.64
2018-09-15T00:29:10.750Z,1129.51
2018-09-15T00:30:10.754Z,1129.43
2018-09-15T00:31:10.745Z,1129.44
2018-09-15T00:32:10.732Z,1129.32
2018-09-15T00:33:10.734Z,1129.36
2018-09-15T00:34:10.753Z,1129.24
2018-09-15T00:35:10.762Z,1129.29
2018-09-15T00:36:10.746Z,1129.17
2018-09-15T00:37:10.745Z,1129.14
2018-09-15T00:38:10.746Z,1128.95
2018-09-15T00:39:10.749Z,1129.15
2018-09-15T00:40:10.762Z,1129.21
2018-09-15T00:41:10.734Z,1129.23
2018-09-15T00:42:10.775Z,1129.33
2018-09-15T00:43:10.758Z,1129.44
2018-09-15T00:44:10.763Z,1129.44
2018-09-15T00:45:10.752Z,1129.51
2018-09-15T00:46:10.753Z,1129.45
2018-09-15T00:57:08.167Z,1130.11
2018-09-15T00:58:08.139Z,1130.26
2018-09-15T00:59:08.148Z,1130.37
2018-09-15T01:00:08.138Z,1130.52
2018-09-15T01:01:08.125Z,1130.56
2018-09-15T01:02:08.149Z,1130.47
2018-09-15T01:03:08.143Z,1130.55
2018-09-15T01:04:08.157Z,1130.57
2018-09-15T01:05:08.151Z,1130.49
2018-09-15T01:06:08.432Z,1130.58
2018-09-15T01:07:08.127Z,1130.62
2018-09-15T01:08:08.164Z,1130.52
2018-09-15T01:09:08.150Z,1130.63
2018-09-15T01:10:08.151Z,1130.58
2018-09-15T01:11:08.141Z,1130.67
2018-09-15T01:12:08.211Z,1130.8
2018-09-15T01:13:08.169Z,1130.78
2018-09-15T01:14:08.308Z,1130.81
2018-09-15T01:15:08.172Z,1130.76
2018-09-15T01:16:08.229Z,1130.73
2018-09-15T01:17:08.230Z,1130.72
2018-09-15T01:18:08.175Z,1130.67
2018-09-15T01:19:08.179Z,1130.67
2018-09-15T01:20:08.323Z,1130.64
2018-09-15T01:21:08.183Z,1130.5
2018-09-15T01:22:08.156Z,1130.55
2018-09-15T01:23:08.244Z,1130.48
2018-09-15T01:24:08.191Z,1130.47
2018-09-15T01:25:08.181Z,1130.57
2018-09-15T01:26:08.288Z,1130.6
2018-09-15T01:27:08.194Z,1130.57
2018-09-15T01:28:08.183Z,1130.68
2018-09-15T01:29:08.177Z,1130.62
2018-09-15T01:30:08.222Z,1130.68
2018-09-15T01:31:08.192Z,1130.79
2018-09-15T01:32:08.206Z,1130.9
2018-09-15T01:33:08.193Z,1131.03
2018-09-15T01:34:08.225Z,1131.16
2018-09-15T01:35:08.215Z,1131.26
2018-09-15T01:36:08.231Z,1131.39
2018-09-15T01:37:08.228Z,1131.42
2018-09-15T01:38:08.196Z,1131.46
2018-09-15T01:39:08.191Z,1131.61
2018-09-15T01:40:08.205Z,1131.63
2018-09-15T01:41:08.223Z,1131.82
2018-09-15T01:42:08.210Z,1131.89
2018-09-15T01:43:08.286Z,1131.82
2018-09-15T01:44:08.209Z,1131.75
2018-09-15T01:45:08.235Z,1131.87
2018-09-15T01:46:08.215Z,1131.83
2018-09-15T01:47:08.293Z,1131.95
2018-09-15T01:48:08.202Z,1132.1
2018-09-15T01:49:08.233Z,1132.16
2018-09-15T01:50:08.204Z,1132.2
2018-09-15T01:51:08.212Z,1132.24
2018-09-15T01:52:08.218Z,1132.32
2018-09-15T01:53:08.297Z,1132.4
2018-09-15T01:54:08.230Z,1132.45
2018-09-15T01:55:08.307Z,1132.53
2018-09-15T01:56:08.214Z,1132.55
2018-09-15T01:57:08.312Z,1132.56
2018-09-15T01:58:08.226Z,1132.57
2018-09-15T01:59:08.232Z,1132.6
2018-09-15T02:00:08.244Z,1132.57
2018-09-15T02:01:08.333Z,1132.5
2018-09-15T02:02:08.271Z,1132.55
2018-09-15T02:03:08.289Z,1132.46
2018-09-15T02:04:08.225Z,1132.41
2018-09-15T02:05:08.250Z,1132.48
2018-09-15T02:06:08.252Z,1132.33
2018-09-15T02:07:08.242Z,1132.35
2018-09-15T02:08:08.283Z,1132.34
2018-09-15T02:09:08.230Z,1132.35
2018-09-15T02:10:08.239Z,1132.43
2018-09-15T02:11:08.272Z,1132.31
2018-09-15T02:12:08.245Z,1132.36
2018-09-15T02:13:08.247Z,1132.35
2018-09-15T02:14:08.263Z,1132.32
2018-09-15T02:15:08.267Z,1132.39
2018-09-15T02:16:08.273Z,1132.32
2018-09-15T02:17:08.266Z,1132.29
2018-09-15T02:18:08.373Z,1132.24
2018-09-15T02:19:08.260Z,1132.17
2018-09-15T02:20:08.254Z,1132.14
2018-09-15T02:21:08.268Z,1132.08
2018-09-15T02:22:08.288Z,1132
2018-09-15T02:23:08.343Z,1131.87
2018-09-15T02:24:08.259Z,1131.82
2018-09-15T02:25:08.368Z,1131.85
2018-09-15T02:26:08.270Z,1131.85
2018-09-15T02:27:08.263Z,1131.79
2018-09-15T02:28:08.363Z,1131.74
2018-09-15T02:29:08.297Z,1131.74
2018-09-15T02:30:08.288Z,1131.67
2018-09-15T02:31:08.268Z,1131.7
2018-09-15T02:32:08.275Z,1131.81
2018-09-15T02:33:08.288Z,1131.79
2018-09-15T02:34:08.314Z,1131.82
2018-09-15T02:35:08.279Z,1131.88
2018-09-15T02:36:08.285Z,1132
2018-09-15T02:37:08.302Z,1131.97
2018-09-15T02:38:08.289Z,1131.97
2018-09-15T02:39:08.285Z,1132.01
2018-09-15T02:40:08.355Z,1132.08
2018-09-15T02:41:08.298Z,1131.98
2018-09-15T02:42:08.310Z,1131.98
2018-09-15T02:43:08.299Z,1131.99
2018-09-15T02:44:08.316Z,1131.96
2018-09-15T02:45:08.299Z,1131.97
2018-09-15T02:46:08.307Z,1131.99
2018-09-15T02:47:08.345Z,1131.85
2018-09-15T02:48:08.342Z,1131.84
2018-09-15T02:49:08.379Z,1131.84
2018-09-15T02:50:08.316Z,1131.87
2018-09-15T02:51:08.315Z,1131.8
2018-09-15T02:52:08.323Z,1131.84
2018-09-15T02:53:08.321Z,1131.85
2018-09-15T02:54:08.380Z,1131.89
2018-09-15T02:55:08.323Z,1131.9
2018-09-15T02:56:08.348Z,1131.94
2018-09-15T02:57:08.334Z,1131.94
2018-09-15T02:58:08.365Z,1131.96
2018-09-15T02:59:08.412Z,1132.01
2018-09-15T03:00:08.318Z,1132.05
2018-09-15T03:01:08.332Z,1131.89
2018-09-15T03:02:08.357Z,1131.9
2018-09-15T03:03:08.333Z,1131.85
2018-09-15T03:04:08.350Z,1131.83
2018-09-15T03:05:08.344Z,1131.79
2018-09-15T03:06:08.352Z,1131.79
2018-09-15T03:07:08.365Z,1131.82
2018-09-15T03:08:08.350Z,1131.78
2018-09-15T03:09:08.334Z,1131.86
2018-09-15T03:10:08.352Z,1131.68
2018-09-15T03:11:08.344Z,1131.62
2018-09-15T03:12:08.370Z,1131.58
2018-09-15T03:13:08.373Z,1131.55
2018-09-15T03:14:08.369Z,1131.39
2018-09-15T03:15:08.370Z,1131.4
2018-09-15T03:16:08.382Z,1131.3
2018-09-15T03:17:08.354Z,1131.17
2018-09-15T03:18:08.443Z,1131.14
2018-09-15T03:19:08.380Z,1131.14
2018-09-15T03:20:08.425Z,1131.04
2018-09-15T03:21:08.442Z,1130.94
2018-09-15T03:22:08.369Z,1130.82
2018-09-15T03:28:48.267Z,1130.54
2018-09-15T03:35:28.379Z,1130.72
2018-09-15T03:36:28.362Z,1130.85
2018-09-15T03:37:28.355Z,1130.76
2018-09-15T03:38:28.370Z,1130.81
2018-09-15T03:39:28.340Z,1130.73
2018-09-15T03:40:28.468Z,1130.73
2018-09-15T03:41:28.468Z,1130.69
2018-09-15T03:42:28.348Z,1130.74
2018-09-15T03:43:28.367Z,1130.68
2018-09-15T03:44:28.379Z,1130.69
2018-09-15T03:45:28.365Z,1130.66
2018-09-15T03:46:28.352Z,1130.75
2018-09-15T03:47:28.364Z,1130.71
2018-09-15T03:48:28.390Z,1130.65
2018-09-15T03:49:28.395Z,1130.62
2018-09-15T03:56:07.989Z,1130.53
2018-09-15T03:57:07.971Z,1130.55
2018-09-15T03:58:07.961Z,1130.49
2018-09-15T03:59:07.978Z,1130.47
2018-09-15T04:00:07.967Z,1130.36
2018-09-15T04:01:07.992Z,1130.48
2018-09-15T04:02:07.969Z,1130.49
2018-09-15T04:03:07.967Z,1130.45
2018-09-15T04:04:07.982Z,1130.63
2018-09-15T04:05:07.979Z,1130.52
2018-09-15T04:06:08.000Z,1130.54
2018-09-15T04:07:07.983Z,1130.63
2018-09-15T04:08:07.970Z,1130.6
2018-09-15T04:09:07.995Z,1130.67
2018-09-15T04:10:07.997Z,1130.81
2018-09-15T04:11:07.990Z,1130.73
2018-09-15T04:12:07.999Z,1130.85
2018-09-15T04:13:08.000Z,1130.83
2018-09-15T04:14:07.994Z,1130.86
2018-09-15T04:15:08.016Z,1130.79
2018-09-15T04:16:08.018Z,1130.75
2018-09-15T04:17:07.997Z,1130.76
2018-09-15T04:18:08.010Z,1130.83
2018-09-15T04:19:08.008Z,1130.82
2018-09-15T04:20:08.010Z,1130.87
2018-09-15T04:21:08.010Z,1130.9
2018-09-15T04:22:08.005Z,1130.83
2018-09-15T04:23:08.013Z,1130.74
2018-09-15T04:24:08.002Z,1130.64
2018-09-15T04:25:08.072Z,1130.56
2018-09-15T04:26:08.016Z,1130.53
2018-09-15T04:27:08.026Z,1130.54
2018-09-15T04:28:08.019Z,1130.51
2018-09-15T04:29:08.007Z,1130.37
2018-09-15T04:30:08.030Z,1130.41
2018-09-15T04:31:08.039Z,1130.35
2018-09-15T04:32:08.031Z,1130.31
2018-09-15T04:33:08.033Z,1130.3
2018-09-15T04:34:08.036Z,1130.2
2018-09-15T04:35:08.022Z,1130.12
2018-09-15T04:36:08.024Z,1129.96
2018-09-15T04:37:08.025Z,1129.88
2018-09-15T04:38:08.133Z,1129.78
2018-09-15T04:39:08.048Z,1129.67
2018-09-15T04:40:08.038Z,1129.71
2018-09-15T04:41:08.058Z,1129.67
2018-09-15T04:42:08.069Z,1129.54
2018-09-15T04:43:08.117Z,1129.42
2018-09-15T04:44:08.036Z,1129.29
2018-09-15T04:45:08.048Z,1129.21
2018-09-15T04:46:08.120Z,1129.07
2018-09-15T04:47:08.056Z,1129.08
2018-09-15T04:48:08.161Z,1129.04
2018-09-15T04:49:08.047Z,1128.88
2018-09-15T04:50:08.051Z,1128.79
2018-09-15T04:51:08.080Z,1128.67
2018-09-15T04:52:08.056Z,1128.66
2018-09-15T04:53:08.069Z,1128.44
2018-09-15T04:54:08.115Z,1128.3
2018-09-15T04:55:08.084Z,1128.32
2018-09-15T04:56:08.093Z,1128.08
2018-09-15T04:57:08.054Z,1128.06
2018-09-15T04:58:08.071Z,1127.9
2018-09-15T04:59:08.112Z,1127.82
2018-09-15T05:00:08.085Z,1127.87
2018-09-15T05:01:08.071Z,1127.76
2018-09-15T05:02:08.097Z,1127.84
2018-09-15T05:03:08.089Z,1127.94
2018-09-15T05:04:08.081Z,1127.97
2018-09-15T05:05:08.079Z,1127.95
2018-09-15T05:06:08.155Z,1127.97
2018-09-15T05:07:08.099Z,1127.99
2018-09-15T05:08:08.083Z,1128.06
2018-09-15T05:09:08.089Z,1127.99
2018-09-15T05:10:08.102Z,1127.99
2018-09-15T05:11:08.092Z,1127.92
2018-09-15T05:12:08.100Z,1128.15
2018-09-15T05:13:08.095Z,1128.18
2018-09-15T05:14:08.100Z,1128.18
2018-09-15T05:15:08.117Z,1128.12
2018-09-15T05:16:08.142Z,1128.25
2018-09-15T05:17:08.113Z,1128.36
2018-09-15T05:18:08.119Z,1128.51
2018-09-15T05:19:08.108Z,1128.68
2018-09-15T05:20:08.106Z,1128.86
2018-09-15T05:21:08.126Z,1129
2018-09-15T05:22:08.129Z,1129.13
2018-09-15T05:23:08.117Z,1129.3
2018-09-15T05:24:08.105Z,1129.33
2018-09-15T05:25:08.107Z,1129.44
2018-09-15T05:26:08.121Z,1129.5
2018-09-15T05:27:08.115Z,1129.48
2018-09-15T05:28:08.127Z,1129.62
2018-09-15T05:29:08.118Z,1129.59
2018-09-15T05:30:08.112Z,1129.55
2018-09-15T05:31:08.140Z,1129.74
2018-09-15T05:32:08.140Z,1129.87
2018-09-15T05:33:08.127Z,1129.88
2018-09-15T05:34:08.126Z,1130.03
2018-09-15T05:35:08.132Z,1130.07
2018-09-15T05:36:08.141Z,1130.21
2018-09-15T05:37:09.505Z,1130.31
2018-09-15T05:38:08.153Z,1130.34
2018-09-15T05:39:08.134Z,1130.36
2018-09-15T05:40:08.141Z,1130.52
2018-09-15T05:41:08.144Z,1130.48
2018-09-15T05:42:08.170Z,1130.61
2018-09-15T05:43:08.154Z,1130.72
2018-09-15T05:44:08.150Z,1130.73
2018-09-15T05:45:08.154Z,1130.94
2018-09-15T05:46:08.155Z,1131.04
2018-09-15T05:47:08.136Z,1131.25
2018-09-15T05:48:08.158Z,1131.25
2018-09-15T05:49:08.158Z,1131.36
2018-09-15T05:50:08.170Z,1131.43
2018-09-15T05:51:08.161Z,1131.49
2018-09-15T05:52:08.172Z,1131.66
2018-09-15T05:53:08.176Z,1131.8
2018-09-15T05:54:08.170Z,1131.78
2018-09-15T05:55:08.179Z,1131.83
2018-09-15T05:56:08.212Z,1131.88
2018-09-15T05:57:08.166Z,1131.91
2018-09-15T05:58:08.181Z,1131.92
2018-09-15T05:59:08.179Z,1132
2018-09-15T06:00:08.174Z,1132.07
2018-09-15T06:01:08.177Z,1132.13
2018-09-15T06:02:08.165Z,1132.29
2018-09-15T06:03:09.096Z,1132.42
2018-09-15T06:04:08.183Z,1132.43
2018-09-15T06:05:08.195Z,1132.55
2018-09-15T06:06:08.176Z,1132.6
2018-09-15T06:07:08.201Z,1132.7
2018-09-15T06:08:08.192Z,1132.91
2018-09-15T06:19:08.216Z,1136.05
2018-09-15T06:20:08.194Z,1136.51
2018-09-15T06:21:08.208Z,1136.87
2018-09-15T06:22:08.197Z,1137.21
2018-09-15T06:23:08.210Z,1137.6
2018-09-15T06:24:08.188Z,1137.82
2018-09-15T06:25:08.230Z,1138.05
2018-09-15T06:26:08.185Z,1138.22
2018-09-15T06:27:08.242Z,1138.34
2018-09-15T06:28:08.202Z,1138.4
2018-09-15T06:29:08.206Z,1138.46
2018-09-15T06:30:08.210Z,1138.51
2018-09-15T06:31:08.326Z,1138.51
2018-09-15T06:32:08.228Z,1138.54
2018-09-15T06:33:08.228Z,1138.53
2018-09-15T06:34:08.204Z,1138.55
2018-09-15T06:35:08.227Z,1138.51
2018-09-15T06:36:08.537Z,1138.49
2018-09-15T06:37:08.948Z,1138.34
2018-09-15T06:38:08.213Z,1138.18
2018-09-15T06:39:08.220Z,1137.96
2018-09-15T06:40:08.210Z,1137.64
2018-09-15T06:41:08.219Z,1137.31
2018-09-15T06:42:08.241Z,1136.97
2018-09-15T06:43:08.213Z,1136.6
2018-09-15T06:44:08.238Z,1136.2
2018-09-15T06:45:08.241Z,1135.69
2018-09-15T06:46:08.234Z,1135.17
2018-09-15T06:47:08.235Z,1134.62
2018-09-15T06:48:08.230Z,1134.03
2018-09-15T06:49:08.231Z,1133.11
2018-09-15T06:50:08.225Z,1132.28
2018-09-15T06:51:08.245Z,1131.64
2018-09-15T06:52:08.238Z,1130.72
2018-09-15T06:53:08.241Z,1129.68
2018-09-15T06:54:08.246Z,1128.52
2018-09-15T06:55:08.272Z,1127.33
2018-09-15T06:56:08.257Z,1126.13
2018-09-15T06:57:08.248Z,1124.9
2018-09-15T06:58:08.268Z,1123.58
2018-09-15T06:59:08.269Z,1122.37
2018-09-15T07:00:08.272Z,1121.66
2018-09-15T07:01:08.263Z,1120.77
2018-09-15T07:02:08.254Z,1119.79
2018-09-15T07:03:08.307Z,1118.62
2018-09-15T07:04:08.264Z,1117.76
2018-09-15T07:05:08.275Z,1116.56
2018-09-15T07:06:08.276Z,1115.35
2018-09-15T07:07:08.309Z,1114.47
2018-09-15T07:08:08.344Z,1113.21
2018-09-15T07:09:08.278Z,1111.74
2018-09-15T07:10:08.275Z,1110.35
2018-09-15T07:11:08.421Z,1108.71
2018-09-15T07:12:08.332Z,1106.88
2018-09-15T07:13:08.342Z,1105.25
2018-09-15T07:14:08.296Z,1103.95
2018-09-15T07:15:08.274Z,1102.56
2018-09-15T07:16:08.304Z,1101.67
2018-09-15T07:17:08.298Z,1100.63
2018-09-15T07:18:08.340Z,1099.93
2018-09-15T07:19:08.301Z,1099.23
2018-09-15T07:20:08.308Z,1098.18
2018-09-15T07:21:08.279Z,1096.3
2018-09-15T07:22:08.277Z,1095.06
2018-09-15T07:23:08.283Z,1094.19
2018-09-15T07:24:08.311Z,1093.1
2018-09-15T07:25:08.358Z,1091.88
2018-09-15T07:26:08.308Z,1090.48
2018-09-15T07:27:08.387Z,1089.21
2018-09-15T07:28:08.321Z,1087.46
2018-09-15T07:29:08.290Z,1085.63
2018-09-15T07:30:08.297Z,1083.6
2018-09-15T07:31:08.381Z,1082.64
2018-09-15T07:32:08.311Z,1082.23
2018-09-15T07:33:08.322Z,1082.53
2018-09-15T07:34:08.330Z,1082.59
2018-09-15T07:35:08.398Z,1082
2018-09-15T07:36:08.323Z,1080.89
2018-09-15T07:37:08.341Z,1079.6
2018-09-15T07:38:08.319Z,1077.88
2018-09-15T07:39:08.359Z,1076.92
2018-09-15T07:40:08.341Z,1076.43
2018-09-15T07:41:08.316Z,1076.04
2018-09-15T07:42:08.346Z,1075.79
2018-09-15T07:43:08.335Z,1075.27
2018-09-15T07:44:08.353Z,1074.39
2018-09-15T07:45:08.344Z,1072.35
2018-09-15T07:46:08.330Z,1070.61
2018-09-15T07:47:08.382Z,1069.37
2018-09-15T07:48:08.425Z,1068.3
2018-09-15T07:49:08.354Z,1067.28
2018-09-15T07:50:08.334Z,1066.54
2018-09-15T07:51:08.337Z,1065.75
2018-09-15T07:52:08.423Z,1064.97
2018-09-15T07:53:08.342Z,1064.82
2018-09-15T07:54:08.364Z,1064.22
2018-09-15T07:55:08.393Z,1063.7
2018-09-15T07:56:08.403Z,1064.46
2018-09-15T07:57:10.306Z,1064.4
2018-09-15T07:58:08.838Z,1063.56
2018-09-15T07:59:09.432Z,1062.53
2018-09-15T08:00:09.109Z,1062.21
2018-09-15T08:01:09.611Z,1062.18
2018-09-15T08:02:11.048Z,1062.15
2018-09-15T08:03:08.701Z,1061.69
2018-09-15T08:04:09.437Z,1061.27
2018-09-15T08:05:09.396Z,1061.35
2018-09-15T08:06:08.854Z,1061.04
2018-09-15T08:07:08.387Z,1060.56
2018-09-15T08:08:08.465Z,1059.96
2018-09-15T08:09:08.587Z,1059.03
2018-09-15T08:10:08.475Z,1058.82
2018-09-15T08:11:08.471Z,1058.04
2018-09-15T08:12:08.431Z,1055.91
2018-09-15T08:13:08.376Z,1053.86
2018-09-15T08:14:08.400Z,1051.87
2018-09-15T08:15:08.391Z,1049.48
2018-09-15T08:16:08.394Z,1046.86
2018-09-15T08:17:08.407Z,1045.35
2018-09-15T08:18:08.401Z,1044.01
2018-09-15T08:19:08.387Z,1042.61
2018-09-15T08:20:08.391Z,1041.11
2018-09-15T08:21:08.387Z,1039.86
2018-09-15T08:22:08.408Z,1039.24
2018-09-15T08:23:08.405Z,1038.55
2018-09-15T08:24:08.394Z,1036.91
2018-09-15T08:25:08.415Z,1034.93
2018-09-15T08:26:08.408Z,1033.04
2018-09-15T08:27:08.449Z,1030.74
2018-09-15T08:28:08.410Z,1028.32
2018-09-15T08:29:08.456Z,1026.23
2018-09-15T08:30:08.483Z,1024.13
2018-09-15T08:31:08.409Z,1021.77
2018-09-15T08:32:08.488Z,1019.72
2018-09-15T08:33:08.439Z,1017.82
2018-09-15T08:34:08.425Z,1016.65
2018-09-15T08:35:08.433Z,1015.98
2018-09-15T08:36:08.425Z,1013.95
2018-09-15T08:37:08.429Z,1012.16
2018-09-15T08:38:08.440Z,1009.86
2018-09-15T08:39:08.427Z,1007.19
2018-09-15T08:40:08.422Z,1005.06
2018-09-15T08:41:08.429Z,1002.7
2018-09-15T08:42:08.500Z,1000.63
2018-09-15T08:43:08.430Z,997.81
2018-09-15T08:44:08.447Z,997.92
2018-09-15T08:45:08.462Z,999.35
2018-09-15T08:46:08.454Z,1002.22
2018-09-15T08:47:08.458Z,1004.43
2018-09-15T08:48:08.501Z,1005.32
2018-09-15T08:49:08.448Z,1004.29
2018-09-15T08:50:08.454Z,1002.29
2018-09-15T08:51:08.450Z,999.76
2018-09-15T08:52:08.435Z,997.4
2018-09-15T08:53:08.465Z,995.87
2018-09-15T08:59:48.366Z,989.37
2018-09-15T09:00:48.384Z,988.95
2018-09-15T09:01:48.361Z,989.06
2018-09-15T09:02:48.450Z,989.41
2018-09-15T09:03:48.432Z,989.66
2018-09-15T09:04:48.365Z,990.26
2018-09-15T09:09:18.087Z,992.95
2018-09-15T09:10:18.145Z,993.19
2018-09-15T09:17:00.083Z,987.18
2018-09-15T09:18:00.295Z,984.84
2018-09-15T09:19:00.078Z,983.03
2018-09-15T09:20:00.231Z,981.38
2018-09-15T09:20:59.923Z,980.21
2018-09-15T09:22:00.090Z,983.72
2018-09-15T09:22:59.956Z,981.83
2018-09-15T09:23:59.948Z,980.27
2018-09-15T09:25:00.652Z,979.74
2018-09-15T09:25:59.991Z,978.73
2018-09-15T09:27:00.023Z,978.09
2018-09-15T09:27:59.927Z,977.29
2018-09-15T09:28:59.949Z,976.28
2018-09-15T09:29:59.854Z,974.51
2018-09-15T09:30:59.839Z,972.28
2018-09-15T09:31:59.854Z,969.31
2018-09-15T09:32:59.846Z,965.75
2018-09-15T09:33:59.859Z,959.75
2018-09-15T09:34:59.867Z,954.77
2018-09-15T09:35:59.875Z,951.28
2018-09-15T09:36:59.932Z,949.26
2018-09-15T09:37:59.844Z,949.61
2018-09-15T09:38:59.860Z,953.33
2018-09-15T09:39:59.855Z,958.23
2018-09-15T09:40:59.865Z,966.27
2018-09-15T09:41:59.872Z,969.78
2018-09-15T09:43:00.428Z,969.26
2018-09-15T09:43:59.855Z,967.04
2018-09-15T09:44:59.865Z,965.63
2018-09-15T09:45:59.863Z,963.44
2018-09-15T09:46:59.876Z,960.74
2018-09-15T09:47:59.949Z,958.11
2018-09-15T09:48:59.887Z,956.43
2018-09-15T09:49:59.879Z,953.64
2018-09-15T09:50:59.879Z,950.45
2018-09-15T09:51:59.880Z,947.6
2018-09-15T09:52:59.976Z,945.23
2018-09-15T09:53:59.885Z,941.67
2018-09-15T09:54:59.895Z,938.4
2018-09-15T09:55:59.896Z,934.57
2018-09-15T09:56:59.905Z,930.67
2018-09-15T09:58:00.225Z,928.06
2018-09-15T09:58:59.879Z,927.03
2018-09-15T09:59:59.896Z,936.18
2018-09-15T10:00:59.903Z,945.35
2018-09-15T10:01:59.916Z,949.8
2018-09-15T10:02:59.907Z,955.26
2018-09-15T10:03:59.885Z,957.36
2018-09-15T10:04:59.893Z,959.45
2018-09-15T10:06:00.350Z,966.88
2018-09-15T10:06:59.938Z,970.98
2018-09-15T10:07:59.985Z,974.51
2018-09-15T10:08:59.935Z,971.08
2018-09-15T10:09:59.940Z,967.35
2018-09-15T10:10:59.981Z,963
2018-09-15T10:11:59.917Z,959.67
2018-09-15T10:12:59.950Z,957.25
2018-09-15T10:13:59.920Z,953.75
2018-09-15T10:14:59.933Z,957.7
2018-09-15T10:16:00.042Z,962.01
2018-09-15T10:16:59.939Z,963.84
2018-09-15T10:17:59.936Z,963.65
2018-09-15T10:18:59.949Z,967.54
2018-09-15T10:19:59.928Z,970.12
2018-09-15T10:20:59.943Z,974.64
2018-09-15T10:22:00.101Z,980.49
2018-09-15T10:23:00.005Z,984.07
2018-09-15T10:23:59.956Z,990.18
2018-09-15T10:24:59.954Z,993.26
2018-09-15T10:25:59.943Z,997.24
2018-09-15T10:30:29.075Z,1009.99
2018-09-15T10:31:29.083Z,1012.5
2018-09-15T10:32:29.145Z,1009.53
2018-09-15T10:33:29.115Z,1007.45
2018-09-15T10:34:29.176Z,1005.85
2018-09-15T10:35:29.155Z,1003.04
2018-09-15T10:36:29.175Z,999.17
2018-09-15T10:37:29.077Z,994.58
2018-09-15T10:38:29.226Z,989.03
2018-09-15T10:39:29.094Z,984.56
2018-09-15T10:40:29.134Z,980.26
2018-09-15T10:41:29.085Z,976.93
2018-09-15T10:42:29.076Z,975.77
2018-09-15T10:43:29.081Z,974.21
2018-09-15T10:44:29.098Z,972.74
2018-09-15T10:45:29.101Z,971.11
2018-09-15T10:46:29.156Z,966.63
2018-09-15T10:47:29.107Z,962.17
2018-09-15T10:48:29.175Z,961.4
2018-09-15T10:49:29.080Z,965.19
2018-09-15T10:50:29.100Z,964.75
2018-09-15T10:51:29.103Z,962.88
2018-09-15T10:55:59.483Z,967.61
2018-09-15T10:56:59.478Z,962.83
2018-09-15T10:57:59.465Z,957.9
2018-09-15T10:58:59.467Z,952.78
2018-09-15T10:59:59.462Z,947.65
2018-09-15T11:00:59.467Z,943.8
2018-09-15T11:01:59.447Z,944.29
2018-09-15T11:02:59.469Z,945.27
2018-09-15T11:03:59.468Z,947.72
2018-09-15T11:04:59.474Z,953.02
2018-09-15T11:05:59.489Z,957.31
2018-09-15T11:06:59.552Z,957.09
2018-09-15T11:07:59.488Z,960.64
2018-09-15T11:08:59.519Z,966.06
2018-09-15T11:09:59.476Z,969.59
2018-09-15T11:10:59.469Z,970.75
2018-09-15T11:11:59.544Z,964.35
2018-09-15T11:12:59.487Z,965.21
2018-09-15T11:13:59.501Z,969.02
2018-09-15T11:14:59.473Z,974.69
2018-09-15T11:15:59.476Z,980.12
2018-09-15T11:16:59.510Z,976.63
2018-09-15T11:17:59.549Z,973.71
2018-09-15T11:18:59.574Z,971.67
2018-09-15T11:19:59.584Z,970.36
2018-09-15T11:20:59.578Z,971.56
2018-09-15T11:21:59.509Z,977.76
2018-09-15T11:22:59.546Z,979.18
2018-09-15T11:24:01.462Z,983.65
2018-09-15T11:24:59.592Z,987.99
2018-09-15T11:25:59.564Z,992.67
2018-09-15T11:26:59.554Z,997.23
2018-09-15T11:27:59.619Z,1000.65
2018-09-15T11:28:59.595Z,995.94
2018-09-15T11:29:59.558Z,998.45
2018-09-15T11:30:59.511Z,1001.45
2018-09-15T11:31:59.547Z,1004.56
2018-09-15T11:32:59.604Z,1007.83
2018-09-15T11:33:59.592Z,1013.49
2018-09-15T11:38:30.339Z,1029.71
2018-09-15T11:39:30.380Z,1023.61
2018-09-15T11:40:30.311Z,1018.4
2018-09-15T11:41:30.377Z,1018.08
2018-09-15T11:42:30.291Z,1014.89
2018-09-15T11:43:30.359Z,1019.1
2018-09-15T11:44:30.438Z,1021.72
2018-09-15T11:45:30.287Z,1025.7
2018-09-15T11:46:30.376Z,1028.95
2018-09-15T11:47:30.420Z,1031.47
2018-09-15T11:48:30.351Z,1033.96
2018-09-15T11:49:30.311Z,1035.81
2018-09-15T11:50:30.302Z,1032.96
2018-09-15T11:51:30.381Z,1034.52
2018-09-15T11:52:30.320Z,1032.77
2018-09-15T11:53:30.337Z,1029.15
2018-09-15T11:54:30.399Z,1027.87
2018-09-15T11:55:30.304Z,1026.64
2018-09-15T11:56:30.332Z,1024.5
2018-09-15T11:57:30.415Z,1022.83
2018-09-15T11:58:30.383Z,1021.9
2018-09-15T11:59:30.494Z,1019.47
2018-09-15T12:00:30.343Z,1017.06
2018-09-15T12:01:32.467Z,1014.22
2018-09-15T12:02:30.312Z,1011.37
2018-09-15T12:03:30.408Z,1009.15
2018-09-15T12:04:30.366Z,1007.01
2018-09-15T12:05:30.344Z,1003.84
2018-09-15T12:06:30.345Z,1000.47
2018-09-15T12:07:30.340Z,996.18
2018-09-15T12:08:30.348Z,991.39
2018-09-15T12:09:30.327Z,986.29
2018-09-15T12:10:30.350Z,981.93
2018-09-15T12:11:30.445Z,976.43
2018-09-15T12:12:30.409Z,972.88
2018-09-15T12:13:30.336Z,969.15
2018-09-15T12:14:30.361Z,965.02
2018-09-15T12:15:30.361Z,962.25
2018-09-15T12:16:30.442Z,968.5
2018-09-15T12:17:30.385Z,978.09
2018-09-15T12:18:30.353Z,986.4
2018-09-15T12:19:30.376Z,992.42
2018-09-15T12:20:30.426Z,994.79
2018-09-15T12:21:30.379Z,995.08
2018-09-15T12:22:30.420Z,998.3
2018-09-15T12:23:30.369Z,998.08
2018-09-15T12:24:30.469Z,993.16
2018-09-15T12:25:30.378Z,989.56
2018-09-15T12:26:30.391Z,986.07
2018-09-15T12:27:30.407Z,982.79
2018-09-15T12:28:30.413Z,979.73
2018-09-15T12:29:30.367Z,976.92
2018-09-15T12:30:30.369Z,980.44
2018-09-15T12:31:30.378Z,978.52
2018-09-15T12:32:30.404Z,975.57
2018-09-15T12:33:30.406Z,973.59
2018-09-15T12:34:30.399Z,971.1
2018-09-15T12:35:30.398Z,968.58
2018-09-15T12:36:30.443Z,966.25
2018-09-15T12:37:30.440Z,963.73
2018-09-15T12:38:30.423Z,961.33
2018-09-15T12:39:30.487Z,958.81
2018-09-15T12:40:30.402Z,958.16
2018-09-15T12:41:30.478Z,959.56
2018-09-15T12:42:30.408Z,965.95
2018-09-15T12:43:30.417Z,971.82
2018-09-15T12:44:30.402Z,979.04
2018-09-15T12:45:30.428Z,985.21
2018-09-15T12:46:30.413Z,989.15
2018-09-15T12:47:30.438Z,986.85
2018-09-15T12:48:30.484Z,986.03
2018-09-15T12:49:30.422Z,986.21
2018-09-15T12:56:08.801Z,988.09
2018-09-15T12:57:08.842Z,987.88
2018-09-15T12:58:08.780Z,987.17
2018-09-15T12:59:08.779Z,986.68
2018-09-15T13:00:08.876Z,984.9
2018-09-15T13:01:08.783Z,983.05
2018-09-15T13:07:49.546Z,1003.36
2018-09-15T13:08:49.534Z,1006.74
2018-09-15T13:09:49.466Z,1009.26
2018-09-15T13:10:49.496Z,1011.58
2018-09-15T13:11:49.472Z,1013.82
2018-09-15T13:12:49.487Z,1014.07
2018-09-15T13:13:49.551Z,1012.84
2018-09-15T13:14:49.527Z,1011.07
2018-09-15T13:15:49.513Z,1009.25
2018-09-15T13:16:49.486Z,1008.64
2018-09-15T13:17:49.481Z,1007.46
2018-09-15T13:18:49.500Z,1005.81
2018-09-15T13:19:49.514Z,1003.49
2018-09-15T13:20:49.568Z,1001.07
2018-09-15T13:21:49.479Z,999.02
2018-09-15T13:22:49.516Z,996.26
2018-09-15T13:23:49.646Z,995.21
2018-09-15T13:24:49.495Z,997.57
2018-09-15T13:25:49.566Z,1000.67
2018-09-15T13:26:49.502Z,1003.58